createdAt,value
2022-08-08T00:00:52.464Z,18.92
2022-08-08T00:03:32.943Z,18.88
2022-08-08T00:06:16.605Z,18.85
2022-08-08T00:09:36.014Z,18.77
2022-08-08T00:12:10.502Z,18.74
2022-08-08T00:14:59.331Z,18.68
2022-08-08T00:18:03.604Z,18.67
2022-08-08T00:20:56.210Z,18.68
2022-08-08T00:23:42.925Z,18.67
2022-08-08T00:26:26.325Z,18.60
2022-08-08T00:29:12.617Z,18.59
2022-08-08T00:32:14.953Z,18.56
2022-08-08T00:35:18.474Z,18.52
2022-08-08T00:38:04.331Z,18.48
2022-08-08T00:41:12.219Z,18.48
2022-08-08T00:43:41.511Z,18.43
2022-08-08T00:46:32.165Z,18.38
2022-08-08T00:49:39.331Z,18.33
2022-08-08T00:52:48.924Z,18.27
2022-08-08T00:55:54.040Z,18.24
2022-08-08T00:59:03.133Z,18.15
2022-08-08T01:01:55.550Z,18.07
2022-08-08T01:05:04.103Z,17.99
2022-08-08T01:07:55.557Z,17.95
2022-08-08T01:10:42.760Z,17.90
2022-08-08T01:13:44.031Z,17.92
2022-08-08T01:16:47.568Z,17.88
2022-08-08T01:20:01.709Z,17.83
2022-08-08T01:22:43.212Z,17.74
2022-08-08T01:25:40.975Z,17.69
2022-08-08T01:28:27.909Z,17.64
2022-08-08T01:32:15.258Z,17.61
2022-08-08T01:35:16.598Z,17.59
2022-08-08T01:38:14.058Z,17.48
2022-08-08T01:40:56.493Z,17.35
2022-08-08T01:43:51.084Z,17.23
2022-08-08T01:46:42.520Z,17.22
2022-08-08T01:49:22.850Z,17.23
2022-08-08T01:53:06.527Z,17.20
2022-08-08T01:56:26.279Z,17.18
2022-08-08T01:58:38.219Z,17.16
2022-08-08T02:01:05.401Z,17.16
2022-08-08T02:03:58.159Z,17.13
2022-08-08T02:06:57.018Z,17.10
2022-08-08T02:10:04.054Z,17.05
2022-08-08T02:13:05.284Z,16.97
2022-08-08T02:15:38.504Z,16.97
2022-08-08T02:18:27.224Z,16.95
2022-08-08T02:21:41.815Z,16.89
2022-08-08T02:24:29.734Z,16.88
2022-08-08T02:27:10.077Z,16.83
2022-08-08T02:29:58.879Z,16.79
2022-08-08T02:32:40.117Z,16.77
2022-08-08T02:35:28.238Z,16.74
2022-08-08T02:37:58.155Z,16.73
2022-08-08T02:41:03.436Z,16.73
2022-08-08T02:44:38.767Z,16.68
2022-08-08T02:47:16.777Z,16.64
2022-08-08T02:50:21.088Z,16.60
2022-08-08T02:53:04.611Z,16.55
2022-08-08T02:55:59.932Z,16.49
2022-08-08T02:58:51.443Z,16.49
2022-08-08T03:01:47.579Z,16.44
2022-08-08T03:05:09.427Z,16.37
2022-08-08T03:07:58.082Z,16.35
2022-08-08T03:10:44.264Z,16.31
2022-08-08T03:13:34.057Z,16.23
2022-08-08T03:16:34.509Z,16.22
2022-08-08T03:19:19.937Z,16.19
2022-08-08T03:21:58.717Z,16.18
2022-08-08T03:24:27.157Z,16.15
2022-08-08T03:27:27.128Z,16.09
2022-08-08T03:30:01.907Z,16.06
2022-08-08T03:32:52.426Z,16.07
2022-08-08T03:35:25.944Z,16.00
2022-08-08T03:38:56.152Z,15.99
2022-08-08T03:40:54.397Z,16.02
2022-08-08T03:43:21.175Z,16.01
2022-08-08T03:46:07.442Z,15.95
2022-08-08T03:49:09.739Z,15.93
2022-08-08T03:51:40.113Z,15.87
2022-08-08T03:54:08.562Z,15.85
2022-08-08T03:56:35.274Z,15.80
2022-08-08T03:59:02.311Z,15.80
2022-08-08T04:02:12.344Z,15.82
2022-08-08T04:04:30.937Z,15.84
2022-08-08T04:07:03.451Z,15.84
2022-08-08T04:09:58.864Z,15.81
2022-08-08T04:12:16.353Z,15.78
2022-08-08T04:14:45.160Z,15.70
2022-08-08T04:17:22.521Z,15.65
2022-08-08T04:19:58.701Z,15.66
2022-08-08T04:22:29.712Z,15.65
2022-08-08T04:24:56.966Z,15.66
2022-08-08T04:28:02.376Z,15.68
2022-08-08T04:30:17.194Z,15.70
2022-08-08T04:32:47.868Z,15.67
2022-08-08T04:35:17.266Z,15.63
2022-08-08T04:37:43.739Z,15.67
2022-08-08T04:40:12.744Z,15.64
2022-08-08T04:42:55.932Z,15.65
2022-08-08T04:45:29.869Z,15.71
2022-08-08T04:48:00.161Z,15.74
2022-08-08T04:50:34.159Z,15.76
2022-08-08T04:53:14.340Z,15.78
2022-08-08T04:55:55.943Z,15.77
2022-08-08T04:58:23.562Z,15.78
2022-08-08T05:00:50.254Z,15.82
2022-08-08T05:04:07.609Z,15.84
2022-08-08T05:06:13.019Z,15.86
2022-08-08T05:08:41.802Z,15.90
2022-08-08T05:11:08.511Z,15.92
2022-08-08T05:13:36.801Z,15.90
2022-08-08T05:16:53.189Z,15.94
2022-08-08T05:20:12.763Z,15.98
2022-08-08T05:22:00.506Z,16.06
2022-08-08T05:24:27.357Z,16.10
2022-08-08T05:26:53.818Z,16.18
2022-08-08T05:29:24.049Z,16.25
2022-08-08T05:32:04.888Z,16.34
2022-08-08T05:34:42.359Z,16.41
2022-08-08T05:37:17.348Z,16.53
2022-08-08T05:39:55.072Z,16.62
2022-08-08T05:42:38.699Z,16.69
2022-08-08T05:45:24.822Z,16.77
2022-08-08T05:48:00.717Z,16.89
2022-08-08T05:50:30.286Z,16.94
2022-08-08T05:53:54.150Z,17.02
2022-08-08T05:56:09.746Z,17.12
2022-08-08T05:58:35.006Z,17.21
2022-08-08T06:01:04.919Z,17.31
2022-08-08T06:03:32.140Z,17.38
2022-08-08T06:06:06.438Z,17.47
2022-08-08T06:08:53.373Z,17.59
2022-08-08T06:11:22.454Z,17.67
2022-08-08T06:13:55.100Z,17.74
2022-08-08T06:16:27.441Z,17.78
2022-08-08T06:19:00.357Z,17.87
2022-08-08T06:21:48.563Z,17.97
2022-08-08T06:24:22.956Z,18.02
2022-08-08T06:27:04.143Z,18.09
2022-08-08T06:29:59.208Z,18.12
2022-08-08T06:32:31.704Z,18.18
2022-08-08T06:36:06.536Z,18.27
2022-08-08T06:37:56.074Z,18.40
2022-08-08T06:40:28.938Z,18.49
2022-08-08T06:43:09.459Z,18.63
2022-08-08T06:45:42.685Z,18.70
2022-08-08T06:48:10.165Z,18.83
2022-08-08T06:50:38.534Z,18.91
2022-08-08T06:53:09.911Z,18.97
2022-08-08T06:55:42.061Z,19.04
2022-08-08T06:58:09.744Z,19.14
2022-08-08T07:00:40.945Z,19.22
2022-08-08T07:03:52.779Z,19.33
2022-08-08T07:06:02.358Z,19.45
2022-08-08T07:08:37.218Z,19.58
2022-08-08T07:11:05.445Z,19.64
2022-08-08T07:14:00.097Z,19.80
2022-08-08T07:17:00.871Z,19.97
2022-08-08T07:19:42.049Z,20.05
2022-08-08T07:22:12.048Z,20.13
2022-08-08T07:24:52.884Z,20.25
2022-08-08T07:27:34.993Z,20.38
2022-08-08T07:30:13.952Z,20.52
2022-08-08T07:32:47.535Z,20.60
2022-08-08T07:35:17.919Z,20.76
2022-08-08T07:37:55.735Z,20.90
2022-08-08T07:40:33.113Z,21.02
2022-08-08T07:43:09.107Z,21.15
2022-08-08T07:45:51.526Z,21.25
2022-08-08T07:48:23.657Z,21.31
2022-08-08T07:50:52.438Z,21.32
2022-08-08T07:54:00.679Z,21.37
2022-08-08T07:56:37.137Z,21.48
2022-08-08T07:59:10.460Z,21.60
2022-08-08T08:02:35.904Z,21.72
2022-08-08T08:04:32.546Z,21.77
2022-08-08T08:07:02.527Z,21.83
2022-08-08T08:09:39.227Z,21.87
2022-08-08T08:12:07.164Z,21.95
2022-08-08T08:14:41.712Z,22.06
2022-08-08T08:17:09.714Z,22.15
2022-08-08T08:19:45.579Z,22.21
2022-08-08T08:22:12.697Z,22.33
2022-08-08T08:24:46.750Z,22.44
2022-08-08T08:27:13.464Z,22.53
2022-08-08T08:29:40.096Z,22.61
2022-08-08T08:32:12.221Z,22.73
2022-08-08T08:34:53.381Z,22.81
2022-08-08T08:37:25.869Z,22.85
2022-08-08T08:40:01.748Z,22.94
2022-08-08T08:42:35.522Z,23.07
2022-08-08T08:45:21.010Z,23.13
2022-08-08T08:47:53.250Z,23.26
2022-08-08T08:50:33.821Z,23.30
2022-08-08T08:53:55.067Z,23.33
2022-08-08T08:56:04.886Z,23.48
2022-08-08T08:58:32.990Z,23.58
2022-08-08T09:01:08.811Z,23.62
2022-08-08T09:03:47.354Z,23.76
2022-08-08T09:06:28.803Z,23.81
2022-08-08T09:09:25.935Z,23.86
2022-08-08T09:12:06.777Z,23.91
2022-08-08T09:14:35.370Z,24.00
2022-08-08T09:17:11.463Z,24.15
2022-08-08T09:21:58.407Z,24.38
2022-08-08T09:22:28.133Z,24.55
2022-08-08T09:24:56.260Z,24.59
2022-08-08T09:27:55.616Z,24.63
2022-08-08T09:30:17.440Z,24.83
2022-08-08T09:32:50.375Z,24.88
2022-08-08T09:35:38.547Z,24.95
2022-08-08T09:38:52.902Z,25.05
2022-08-08T09:41:55.087Z,25.09
2022-08-08T09:44:48.179Z,25.23
2022-08-08T09:48:02.165Z,25.39
2022-08-08T09:50:11.545Z,25.62
2022-08-08T09:53:10.321Z,25.74
2022-08-08T09:56:05.011Z,25.87
2022-08-08T09:58:27.879Z,26.06
2022-08-08T10:01:15.382Z,26.19
2022-08-08T10:04:02.137Z,26.36
2022-08-08T10:06:32.634Z,26.42
2022-08-08T10:08:59.979Z,26.42
2022-08-08T10:12:26.038Z,26.47
2022-08-08T10:14:28.428Z,26.48
2022-08-08T10:17:03.740Z,26.53
2022-08-08T10:19:58.618Z,26.31
2022-08-08T10:22:28.705Z,26.26
2022-08-08T10:25:02.377Z,26.36
2022-08-08T10:27:34.457Z,26.49
2022-08-08T10:30:05.187Z,26.45
2022-08-08T10:32:35.459Z,26.51
2022-08-08T10:36:06.899Z,26.64
2022-08-08T10:38:05.392Z,26.79
2022-08-08T10:40:33.127Z,26.97
2022-08-08T10:43:06.069Z,27.17
2022-08-08T10:45:56.079Z,27.28
2022-08-08T10:48:32.245Z,27.21
2022-08-08T10:51:00.099Z,26.92
2022-08-08T10:53:39.387Z,27.13
2022-08-08T10:56:27.708Z,27.38
2022-08-08T10:59:10.343Z,27.60
2022-08-08T11:01:46.922Z,27.70
2022-08-08T11:04:29.503Z,27.27
2022-08-08T11:07:01.809Z,27.41
2022-08-08T11:09:32.335Z,27.66
2022-08-08T11:12:06.409Z,27.99
2022-08-08T11:15:22.857Z,28.31
2022-08-08T11:17:59.445Z,28.50
2022-08-08T11:20:29.348Z,28.47
2022-08-08T11:22:59.069Z,28.39
2022-08-08T11:25:52.124Z,28.41
2022-08-08T11:28:22.954Z,28.50
2022-08-08T11:30:53.547Z,28.65
2022-08-08T11:33:51.403Z,28.72
2022-08-08T11:36:13.365Z,28.73
2022-08-08T11:38:55.599Z,28.86
2022-08-08T11:41:28.274Z,29.08
2022-08-08T11:44:00.384Z,29.21
2022-08-08T11:46:30.493Z,29.36
2022-08-08T11:49:00.135Z,29.46
2022-08-08T11:51:38.438Z,29.66
2022-08-08T11:54:27.138Z,29.62
2022-08-08T11:56:56.614Z,29.57
2022-08-08T11:59:58.592Z,29.69
2022-08-08T12:02:32.368Z,29.86
2022-08-08T12:05:02.076Z,30.00
2022-08-08T12:07:28.947Z,29.74
2022-08-08T12:09:59.586Z,30.01
2022-08-08T12:12:31.238Z,30.37
2022-08-08T12:15:02.373Z,30.92
2022-08-08T12:17:33.288Z,31.26
2022-08-08T12:20:05.854Z,31.53
2022-08-08T12:22:44.958Z,31.73
2022-08-08T12:25:20.497Z,31.94
2022-08-08T12:27:52.748Z,31.56
2022-08-08T12:30:32.402Z,31.53
2022-08-08T12:33:00.197Z,31.74
2022-08-08T12:35:33.524Z,31.68
2022-08-08T12:38:07.814Z,31.92
2022-08-08T12:40:55.949Z,32.47
2022-08-08T12:43:43.403Z,33.11
2022-08-08T12:46:19.371Z,33.51
2022-08-08T12:49:22.288Z,33.86
2022-08-08T12:51:58.383Z,34.37
2022-08-08T12:54:36.794Z,34.58
2022-08-08T12:57:38.292Z,34.77
2022-08-08T13:00:33.922Z,35.05
2022-08-08T13:03:05.760Z,35.25
2022-08-08T13:06:03.988Z,34.90
2022-08-08T13:08:21.899Z,34.96
2022-08-08T13:10:58.212Z,35.25
2022-08-08T13:13:28.474Z,35.29
2022-08-08T13:16:20.032Z,34.68
2022-08-08T13:18:57.516Z,34.61
2022-08-08T13:21:48.610Z,34.74
2022-08-08T13:24:18.803Z,34.82
2022-08-08T13:27:10.708Z,34.84
2022-08-08T13:29:52.929Z,34.69
2022-08-08T13:32:23.587Z,34.86
2022-08-08T13:34:54.939Z,35.13
2022-08-08T13:37:28.223Z,34.62
2022-08-08T13:40:10.614Z,33.97
2022-08-08T13:42:37.615Z,34.34
2022-08-08T13:45:09.909Z,34.73
2022-08-08T13:47:37.357Z,35.10
2022-08-08T13:50:39.876Z,35.30
2022-08-08T13:52:59.009Z,35.46
2022-08-08T13:55:36.373Z,35.33
2022-08-08T13:58:08.091Z,35.47
2022-08-08T14:00:45.094Z,35.60
2022-08-08T14:03:47.095Z,34.87
2022-08-08T14:06:09.096Z,35.10
2022-08-08T14:08:57.315Z,35.22
2022-08-08T14:11:28.316Z,35.13
2022-08-08T14:14:00.284Z,34.93
2022-08-08T14:16:27.783Z,34.71
2022-08-08T14:18:59.355Z,34.81
2022-08-08T14:21:40.086Z,35.09
2022-08-08T14:24:30.120Z,35.14
2022-08-08T14:26:56.705Z,35.17
2022-08-08T14:29:29.925Z,35.07
2022-08-08T14:32:12.721Z,35.07
2022-08-08T14:34:50.516Z,34.74
2022-08-08T14:37:18.368Z,34.69
2022-08-08T14:40:05.989Z,34.62
2022-08-08T14:42:54.509Z,34.63
2022-08-08T14:45:29.068Z,34.83
2022-08-08T14:48:11.318Z,34.74
2022-08-08T14:50:41.055Z,34.80
2022-08-08T14:53:13.521Z,34.77
2022-08-08T14:55:41.923Z,34.78
2022-08-08T14:58:12.013Z,34.71
2022-08-08T15:00:43.377Z,34.62
2022-08-08T15:03:15.676Z,34.85
2022-08-08T15:05:53.588Z,34.84
2022-08-08T15:08:35.280Z,34.68
2022-08-08T15:11:09.432Z,34.52
2022-08-08T15:14:01.025Z,34.30
2022-08-08T15:16:27.915Z,33.82
2022-08-08T15:18:54.895Z,33.68
2022-08-08T15:21:27.642Z,33.44
2022-08-08T15:23:56.748Z,33.25
2022-08-08T15:26:25.789Z,33.03
2022-08-08T15:28:55.127Z,32.72
2022-08-08T15:32:02.792Z,32.53
2022-08-08T15:34:28.771Z,32.36
2022-08-08T15:37:02.091Z,32.04
2022-08-08T15:39:39.072Z,31.93
2022-08-08T15:42:10.471Z,31.78
2022-08-08T16:08:23.143Z,29.97
2022-08-08T16:13:03.267Z,30.01
2022-08-08T16:13:46.407Z,30.12
2022-08-08T16:16:18.486Z,29.97
2022-08-08T16:18:56.828Z,29.93
2022-08-08T16:21:27.095Z,30.01
2022-08-08T16:23:55.336Z,30.20
2022-08-08T16:26:34.315Z,30.22
2022-08-08T16:29:09.084Z,30.23
2022-08-08T16:31:40.182Z,30.38
2022-08-08T16:34:06.770Z,30.40
2022-08-08T16:36:35.866Z,30.38
2022-08-08T16:39:09.724Z,30.37
2022-08-08T16:41:44.275Z,30.35
2022-08-08T16:44:17.913Z,30.37
2022-08-08T16:46:56.234Z,30.08
2022-08-08T16:49:23.133Z,30.05
2022-08-08T16:55:00.262Z,29.88
2022-08-08T16:55:04.482Z,29.96
2022-08-08T16:58:14.563Z,29.77
2022-08-08T17:00:26.954Z,29.64
2022-08-08T17:02:54.013Z,29.50
2022-08-08T17:05:20.517Z,29.28
2022-08-08T17:07:51.255Z,29.13
2022-08-08T17:10:19.180Z,28.95
2022-08-08T17:12:54.934Z,28.87
2022-08-08T17:15:22.986Z,28.85
2022-08-08T17:18:03.033Z,28.73
2022-08-08T17:20:31.880Z,28.59
2022-08-08T17:23:17.674Z,28.46
2022-08-08T17:25:52.412Z,28.34
2022-08-08T17:28:31.540Z,28.29
2022-08-08T17:31:39.165Z,28.21
2022-08-08T17:34:47.857Z,28.14
2022-08-08T17:36:36.471Z,27.98
2022-08-08T17:39:05.416Z,27.92
2022-08-08T17:41:58.107Z,27.80
2022-08-08T17:44:26.986Z,27.73
2022-08-08T17:46:56.882Z,27.65
2022-08-08T17:49:28.556Z,27.62
2022-08-08T17:52:05.601Z,27.55
2022-08-08T17:54:33.755Z,27.48
2022-08-08T17:57:03.806Z,27.51
2022-08-08T17:59:36.447Z,27.46
2022-08-08T18:02:18.566Z,27.39
2022-08-08T18:04:51.127Z,27.34
2022-08-08T18:08:01.098Z,27.23
2022-08-08T18:10:05.341Z,27.12
2022-08-08T18:12:31.833Z,27.08
2022-08-08T18:14:58.697Z,27.05
2022-08-08T18:17:28.460Z,26.99
2022-08-08T18:20:42.917Z,26.96
2022-08-08T18:22:51.064Z,26.92
2022-08-08T18:25:18.036Z,26.87
2022-08-08T18:27:45.716Z,26.82
2022-08-08T18:30:13.176Z,26.75
2022-08-08T18:32:42.190Z,26.68
2022-08-08T18:35:15.944Z,26.64
2022-08-08T18:37:48.409Z,26.62
2022-08-08T18:40:17.988Z,26.58
2022-08-08T18:42:45.607Z,26.55
2022-08-08T18:46:08.520Z,26.42
2022-08-08T18:48:07.801Z,26.38
2022-08-08T18:50:39.802Z,26.31
2022-08-08T18:53:17.177Z,26.22
2022-08-08T18:55:44.951Z,26.18
2022-08-08T18:58:13.639Z,26.10
2022-08-08T19:00:40.522Z,25.99
2022-08-08T19:03:13.545Z,25.92
2022-08-08T19:05:45.105Z,25.84
2022-08-08T19:08:25.114Z,25.79
2022-08-08T19:10:58.890Z,25.75
2022-08-08T19:13:53.098Z,25.66
2022-08-08T19:16:15.031Z,25.59
2022-08-08T19:18:51.825Z,25.51
2022-08-08T19:21:30.763Z,25.42
2022-08-08T19:24:05.752Z,25.36
2022-08-08T19:26:37.375Z,25.28
2022-08-08T19:29:05.312Z,25.19
2022-08-08T19:31:35.781Z,25.14
2022-08-08T19:34:29.902Z,25.07
2022-08-08T19:36:58.632Z,24.99
2022-08-08T19:39:34.964Z,24.91
2022-08-08T19:42:04.369Z,24.88
2022-08-08T19:44:45.324Z,24.78
2022-08-08T19:47:24.430Z,24.71
2022-08-08T19:49:59.663Z,24.62
2022-08-08T19:52:35.340Z,24.58
2022-08-08T19:55:11.346Z,24.48
2022-08-08T19:57:40.567Z,24.43
2022-08-08T20:00:11.546Z,24.35
2022-08-08T20:02:55.950Z,24.26
2022-08-08T20:06:14.629Z,24.19
2022-08-08T20:08:30.274Z,24.10
2022-08-08T20:10:56.339Z,24.04
2022-08-08T20:14:31.727Z,23.97
2022-08-08T20:16:13.535Z,23.93
2022-08-08T20:18:52.526Z,23.88
2022-08-08T20:21:23.265Z,23.85
2022-08-08T20:23:57.883Z,23.80
2022-08-08T20:26:27.585Z,23.73
2022-08-08T20:28:56.406Z,23.71
2022-08-08T20:31:22.921Z,23.61
2022-08-08T20:34:27.434Z,23.59
2022-08-08T20:36:38.547Z,23.53
2022-08-08T20:39:06.080Z,23.49
2022-08-08T20:41:33.818Z,23.45
2022-08-08T20:44:01.033Z,23.39
2022-08-08T20:46:27.719Z,23.34
2022-08-08T20:48:58.349Z,23.29
2022-08-08T20:51:32.322Z,23.28
2022-08-08T20:54:03.592Z,23.21
2022-08-08T20:57:04.622Z,23.21
2022-08-08T20:59:24.730Z,23.15
2022-08-08T21:02:06.251Z,23.11
2022-08-08T21:07:04.974Z,23.03
2022-08-08T21:09:48.570Z,22.97
2022-08-08T21:12:32.164Z,22.87
2022-08-08T21:15:06.541Z,22.81
2022-08-08T21:17:34.476Z,22.77
2022-08-08T21:20:02.561Z,22.72
2022-08-08T21:22:30.466Z,22.66
2022-08-08T21:24:57.060Z,22.56
2022-08-08T21:28:05.886Z,22.57
2022-08-08T21:30:17.847Z,22.53
2022-08-08T21:32:51.121Z,22.51
2022-08-08T21:36:18.097Z,22.45
2022-08-08T21:38:16.300Z,22.45
2022-08-08T21:40:56.356Z,22.36
2022-08-08T21:43:34.183Z,22.33
2022-08-08T21:48:00.347Z,22.30
2022-08-08T21:48:55.482Z,22.27
2022-08-08T21:54:18.014Z,22.23
2022-08-08T21:54:35.768Z,22.14
2022-08-08T21:57:09.585Z,22.15
2022-08-08T22:00:02.958Z,22.09
2022-08-08T22:02:24.148Z,22.08
2022-08-08T22:04:55.994Z,22.09
2022-08-08T22:07:26.079Z,21.94
2022-08-08T22:10:01.463Z,21.90
2022-08-08T22:12:27.955Z,21.90
2022-08-08T22:14:54.453Z,21.89
2022-08-08T22:17:20.956Z,21.79
2022-08-08T22:20:11.429Z,21.76
2022-08-08T22:22:38.203Z,21.74
2022-08-08T22:25:19.890Z,21.72
2022-08-08T22:28:03.762Z,21.73
2022-08-08T22:30:33.594Z,21.72
2022-08-08T22:33:01.088Z,21.66
2022-08-08T22:36:05.577Z,21.63
2022-08-08T22:38:17.454Z,21.60
2022-08-08T22:40:45.114Z,21.60
2022-08-08T22:43:15.573Z,21.54
2022-08-08T22:45:43.510Z,21.47
2022-08-08T22:48:13.892Z,21.45
2022-08-08T22:50:40.579Z,21.40
2022-08-08T22:54:29.496Z,21.36
2022-08-08T22:55:58.660Z,21.26
2022-08-08T22:58:30.993Z,21.25
2022-08-08T23:01:00.071Z,21.22
2022-08-08T23:03:52.803Z,21.20
2022-08-08T23:06:16.138Z,21.18
2022-08-08T23:08:44.426Z,21.08
2022-08-08T23:11:21.657Z,21.03
2022-08-08T23:13:51.625Z,21.08
2022-08-08T23:16:38.946Z,21.06
2022-08-08T23:19:08.816Z,20.98
2022-08-08T23:21:38.793Z,20.93
2022-08-08T23:24:05.930Z,20.89
2022-08-08T23:26:34.020Z,20.86
2022-08-08T23:29:01.185Z,20.83
2022-08-08T23:31:27.740Z,20.79
2022-08-08T23:34:16.930Z,20.79
2022-08-08T23:36:40.852Z,20.74
2022-08-08T23:39:07.785Z,20.74
2022-08-08T23:41:45.915Z,20.69
2022-08-08T23:44:16.116Z,20.68
2022-08-08T23:49:02.733Z,20.64
2022-08-08T23:49:32.194Z,20.63
2022-08-08T23:52:07.135Z,20.60
2022-08-08T23:54:43.454Z,20.56
2022-08-08T23:57:38.760Z,20.50
